createdAt,value
2023-02-25T00:01:38.963Z,69.95
2023-02-25T00:04:05.820Z,69.95
2023-02-25T00:06:32.851Z,69.48
2023-02-25T00:08:59.750Z,69.30
2023-02-25T00:11:27.043Z,69.11
2023-02-25T00:13:54.193Z,69.24
2023-02-25T00:16:24.961Z,69.83
2023-02-25T00:18:55.677Z,70.46
2023-02-25T00:21:23.956Z,70.51
2023-02-25T00:23:51.321Z,70.68
2023-02-25T00:26:18.565Z,72.58
2023-02-25T00:28:46.455Z,70.82
2023-02-25T00:31:17.132Z,70.67
2023-02-25T00:33:45.402Z,71.46
2023-02-25T00:36:15.466Z,70.43
2023-02-25T00:38:42.236Z,71.01
2023-02-25T00:41:11.592Z,70.84
2023-02-25T00:43:40.825Z,70.43
2023-02-25T00:46:11.841Z,71.47
2023-02-25T00:48:39.400Z,71.29
2023-02-25T00:51:11.361Z,71.95
2023-02-25T00:53:39.197Z,71.44
2023-02-25T00:56:08.839Z,71.41
2023-02-25T00:58:36.789Z,72.14
2023-02-25T01:01:05.107Z,72.37
2023-02-25T01:03:32.527Z,71.92
2023-02-25T01:05:59.367Z,71.63
2023-02-25T01:08:27.744Z,70.37
2023-02-25T01:10:54.501Z,71.87
2023-02-25T01:13:21.379Z,71.39
2023-02-25T01:15:48.161Z,71.70
2023-02-25T01:18:15.958Z,71.50
2023-02-25T01:20:42.815Z,70.78
2023-02-25T01:23:09.583Z,69.75
2023-02-25T01:25:40.870Z,71.01
2023-02-25T01:28:08.164Z,69.61
2023-02-25T01:30:37.347Z,69.33
2023-02-25T01:33:04.750Z,69.92
2023-02-25T01:35:31.548Z,68.46
2023-02-25T01:37:58.413Z,68.86
2023-02-25T01:40:25.763Z,68.53
2023-02-25T01:42:53.923Z,70.10
2023-02-25T01:45:30.396Z,68.21
2023-02-25T01:48:14.864Z,69.54
2023-02-25T01:50:51.000Z,68.64
2023-02-25T01:53:42.532Z,68.56
2023-02-25T01:56:12.691Z,68.27
2023-02-25T01:58:42.476Z,68.98
2023-02-25T02:01:17.772Z,69.94
2023-02-25T02:03:48.409Z,69.62
2023-02-25T02:06:19.680Z,68.91
2023-02-25T02:08:49.310Z,69.24
2023-02-25T02:11:17.064Z,68.15
2023-02-25T02:13:49.855Z,68.52
2023-02-25T02:16:39.151Z,68.90
2023-02-25T02:19:33.252Z,67.35
2023-02-25T02:22:11.553Z,67.01
2023-02-25T02:25:30.742Z,67.64
2023-02-25T02:28:26.611Z,68.57
2023-02-25T02:31:31.438Z,67.74
2023-02-25T02:34:15.974Z,68.66
2023-02-25T02:36:58.640Z,68.26
2023-02-25T02:39:41.865Z,68.31
2023-02-25T02:42:17.979Z,68.23
2023-02-25T02:44:56.103Z,68.49
2023-02-25T02:47:31.932Z,69.23
2023-02-25T02:50:05.982Z,68.44
2023-02-25T02:52:40.741Z,68.79
2023-02-25T02:55:26.596Z,69.11
2023-02-25T02:58:03.071Z,69.71
2023-02-25T03:00:39.766Z,70.55
2023-02-25T03:03:14.827Z,69.05
2023-02-25T03:05:49.178Z,68.96
2023-02-25T03:08:25.429Z,69.69
2023-02-25T03:10:52.480Z,69.17
2023-02-25T03:13:21.947Z,69.78
2023-02-25T03:15:51.636Z,69.75
2023-02-25T03:18:32.493Z,70.00
2023-02-25T03:21:06.167Z,69.90
2023-02-25T03:23:39.321Z,70.45
2023-02-25T03:26:17.719Z,70.09
2023-02-25T03:28:46.332Z,70.43
2023-02-25T03:31:22.430Z,70.42
2023-02-25T03:33:57.657Z,70.90
2023-02-25T03:36:31.066Z,71.27
2023-02-25T03:39:13.853Z,70.90
2023-02-25T03:41:46.547Z,70.73
2023-02-25T03:44:20.630Z,70.63
2023-02-25T03:46:48.521Z,71.09
2023-02-25T03:49:27.016Z,70.90
2023-02-25T03:51:58.557Z,71.03
2023-02-25T03:54:25.660Z,71.46
2023-02-25T03:56:52.594Z,71.36
2023-02-25T03:59:20.430Z,71.43
2023-02-25T04:01:51.936Z,70.90
2023-02-25T04:04:20.480Z,70.75
2023-02-25T04:06:47.905Z,70.88
2023-02-25T04:09:15.019Z,70.47
2023-02-25T04:11:42.373Z,70.17
2023-02-25T04:14:09.178Z,69.94
2023-02-25T04:16:36.254Z,69.31
2023-02-25T04:19:03.252Z,68.43
2023-02-25T04:21:34.915Z,67.78
2023-02-25T04:24:02.960Z,68.27
2023-02-25T04:26:29.865Z,68.08
2023-02-25T04:28:57.482Z,67.42
2023-02-25T04:31:24.831Z,66.84
2023-02-25T04:33:51.797Z,66.42
2023-02-25T04:36:25.165Z,66.35
2023-02-25T04:38:54.610Z,65.65
2023-02-25T04:41:21.590Z,65.90
2023-02-25T04:43:48.502Z,65.79
2023-02-25T04:46:15.324Z,64.88
2023-02-25T04:48:42.108Z,65.20
2023-02-25T04:51:09.318Z,64.97
2023-02-25T04:53:36.841Z,64.67
2023-02-25T04:56:08.705Z,65.65
2023-02-25T04:58:37.553Z,65.07
2023-02-25T05:01:07.509Z,64.65
2023-02-25T05:03:35.578Z,64.36
2023-02-25T05:06:03.848Z,64.43
2023-02-25T05:08:30.998Z,64.10
2023-02-25T05:10:57.857Z,64.09
2023-02-25T05:13:28.702Z,64.23
2023-02-25T05:16:05.341Z,63.34
2023-02-25T05:18:32.483Z,63.81
2023-02-25T05:20:59.292Z,63.76
2023-02-25T05:23:26.656Z,63.49
2023-02-25T05:25:53.474Z,63.47
2023-02-25T05:28:20.214Z,63.73
2023-02-25T05:30:48.846Z,63.21
2023-02-25T05:33:16.168Z,63.57
2023-02-25T05:35:43.158Z,63.86
2023-02-25T05:38:10.275Z,63.56
2023-02-25T05:40:38.822Z,63.56
2023-02-25T05:43:05.885Z,63.36
2023-02-25T05:45:32.724Z,63.42
2023-02-25T05:48:01.083Z,63.29
2023-02-25T05:50:27.856Z,63.08
2023-02-25T05:52:54.658Z,63.23
2023-02-25T05:55:21.467Z,61.95
2023-02-25T05:57:48.234Z,62.31
2023-02-25T06:00:16.631Z,62.66
2023-02-25T06:02:43.559Z,62.44
2023-02-25T06:05:11.737Z,62.45
2023-02-25T06:07:39.039Z,62.53
2023-02-25T06:10:07.197Z,62.29
2023-02-25T06:12:34.810Z,63.44
2023-02-25T06:15:01.654Z,62.02
2023-02-25T06:17:28.505Z,62.64
2023-02-25T06:19:55.510Z,62.44
2023-02-25T06:22:23.854Z,62.51
2023-02-25T06:24:50.576Z,62.35
2023-02-25T06:27:17.404Z,62.71
2023-02-25T06:29:47.980Z,62.61
2023-02-25T06:32:15.617Z,63.01
2023-02-25T06:34:42.784Z,62.80
2023-02-25T06:37:09.634Z,63.06
2023-02-25T06:39:37.855Z,63.19
2023-02-25T06:42:05.200Z,63.23
2023-02-25T06:44:31.979Z,63.61
2023-02-25T06:46:58.754Z,63.12
2023-02-25T06:49:25.560Z,62.41
2023-02-25T06:51:52.515Z,62.21
2023-02-25T06:54:19.655Z,62.35
2023-02-25T06:56:47.762Z,62.26
2023-02-25T06:59:14.544Z,62.47
2023-02-25T07:01:41.612Z,62.58
2023-02-25T07:04:15.165Z,62.29
2023-02-25T07:06:42.045Z,62.29
2023-02-25T07:09:09.139Z,61.99
2023-02-25T07:11:35.985Z,61.94
2023-02-25T07:14:06.384Z,61.91
2023-02-25T07:16:33.463Z,62.29
2023-02-25T07:19:01.410Z,62.23
2023-02-25T07:21:30.168Z,61.75
2023-02-25T07:23:57.827Z,61.78
2023-02-25T07:26:26.115Z,61.73
2023-02-25T07:28:53.088Z,61.76
2023-02-25T07:31:23.083Z,62.89
2023-02-25T07:33:51.601Z,61.87
2023-02-25T07:36:18.580Z,61.36
2023-02-25T07:38:46.452Z,61.90
2023-02-25T07:41:16.587Z,61.42
2023-02-25T07:43:44.233Z,60.80
2023-02-25T07:46:12.473Z,60.69
2023-02-25T07:48:41.098Z,61.10
2023-02-25T07:51:11.633Z,61.04
2023-02-25T07:53:39.400Z,59.97
2023-02-25T07:56:08.196Z,60.44
2023-02-25T07:58:36.251Z,60.42
2023-02-25T08:01:08.702Z,59.77
2023-02-25T08:03:35.750Z,59.87
2023-02-25T08:06:05.018Z,59.82
2023-02-25T08:08:57.440Z,59.33
2023-02-25T08:11:26.615Z,58.65
2023-02-25T08:13:54.851Z,58.51
2023-02-25T08:16:22.566Z,58.17
2023-02-25T08:18:49.574Z,57.77
2023-02-25T08:21:22.045Z,57.21
2023-02-25T08:23:49.270Z,57.58
2023-02-25T08:26:17.055Z,56.63
2023-02-25T08:28:45.383Z,57.07
2023-02-25T08:31:13.090Z,56.11
2023-02-25T08:33:44.544Z,55.94
2023-02-25T08:36:14.608Z,56.50
2023-02-25T08:38:43.408Z,55.49
2023-02-25T08:41:10.575Z,55.80
2023-02-25T08:43:37.988Z,56.65
2023-02-25T08:46:05.697Z,56.47
2023-02-25T08:48:33.345Z,56.00
2023-02-25T08:51:04.566Z,56.59
2023-02-25T08:53:31.460Z,56.17
2023-02-25T08:56:03.610Z,55.74
2023-02-25T08:58:31.940Z,55.43
2023-02-25T09:00:59.551Z,56.21
2023-02-25T09:03:26.443Z,55.53
2023-02-25T09:05:55.021Z,55.49
2023-02-25T09:08:22.574Z,55.49
2023-02-25T09:10:50.892Z,54.76
2023-02-25T09:13:19.391Z,54.94
2023-02-25T09:15:46.506Z,55.59
2023-02-25T09:18:13.367Z,55.06
2023-02-25T09:20:40.148Z,53.83
2023-02-25T09:23:07.001Z,53.77
2023-02-25T09:25:33.992Z,53.73
2023-02-25T09:28:00.999Z,53.96
2023-02-25T09:30:30.006Z,54.22
2023-02-25T09:32:57.810Z,53.12
2023-02-25T09:35:24.748Z,52.79
2023-02-25T09:37:51.874Z,52.83
2023-02-25T09:40:20.483Z,53.25
2023-02-25T09:43:03.373Z,53.54
2023-02-25T09:45:34.385Z,53.08
2023-02-25T09:48:13.197Z,51.83
2023-02-25T09:50:47.562Z,51.80
2023-02-25T09:53:21.667Z,51.57
2023-02-25T09:55:51.426Z,51.31
2023-02-25T09:58:30.466Z,50.56
2023-02-25T10:01:06.720Z,50.54
2023-02-25T10:03:58.075Z,51.01
2023-02-25T10:06:35.411Z,49.82
2023-02-25T10:09:15.201Z,51.30
2023-02-25T10:11:52.476Z,50.09
2023-02-25T10:14:57.482Z,49.97
2023-02-25T10:17:39.673Z,51.46
2023-02-25T10:20:40.571Z,52.71
2023-02-25T10:23:28.207Z,52.55
2023-02-25T10:26:02.630Z,52.53
2023-02-25T10:28:31.325Z,52.18
2023-02-25T10:31:05.329Z,53.23
2023-02-25T10:33:39.918Z,53.56
2023-02-25T10:36:14.265Z,54.78
2023-02-25T10:38:46.181Z,55.17
2023-02-25T10:41:14.096Z,55.92
2023-02-25T10:43:41.992Z,55.38
2023-02-25T10:46:18.667Z,55.82
2023-02-25T10:48:57.292Z,54.25
2023-02-25T10:51:25.628Z,54.92
2023-02-25T10:54:14.341Z,54.09
2023-02-25T10:56:45.679Z,53.19
2023-02-25T10:59:30.155Z,53.40
2023-02-25T11:02:00.589Z,53.49
2023-02-25T11:04:38.770Z,54.12
2023-02-25T11:07:35.187Z,55.35
2023-02-25T11:10:13.931Z,55.81
2023-02-25T11:12:43.228Z,55.53
2023-02-25T11:15:44.182Z,55.38
2023-02-25T11:18:22.716Z,56.18
2023-02-25T11:20:55.868Z,55.90
2023-02-25T11:23:35.781Z,56.00
2023-02-25T11:26:04.521Z,56.80
2023-02-25T11:28:38.159Z,57.85
2023-02-25T11:31:15.883Z,58.02
2023-02-25T11:33:50.176Z,58.95
2023-02-25T11:36:24.352Z,59.67
2023-02-25T11:39:13.992Z,60.92
2023-02-25T11:41:41.096Z,62.65
2023-02-25T11:44:21.798Z,65.11
2023-02-25T11:47:01.187Z,64.35
2023-02-25T11:50:06.401Z,64.64
2023-02-25T11:52:44.537Z,64.03
2023-02-25T11:55:36.180Z,64.58
2023-02-25T11:58:16.584Z,64.99
2023-02-25T12:00:56.051Z,65.55
2023-02-25T12:03:55.768Z,64.68
2023-02-25T12:06:45.210Z,64.92
2023-02-25T12:09:58.083Z,62.83
2023-02-25T12:13:32.891Z,61.22
2023-02-25T12:17:12.160Z,61.18
2023-02-25T12:20:35.987Z,60.83
2023-02-25T12:24:07.588Z,58.94
2023-02-25T12:27:07.860Z,58.30
2023-02-25T12:30:06.323Z,57.89
2023-02-25T12:32:57.747Z,57.00
2023-02-25T12:35:55.253Z,56.13
2023-02-25T12:39:12.980Z,56.10
2023-02-25T12:41:47.515Z,55.66
2023-02-25T12:44:53.091Z,55.31
2023-02-25T12:47:56.957Z,54.49
2023-02-25T12:50:44.530Z,54.79
2023-02-25T12:53:29.702Z,54.78
2023-02-25T12:56:18.791Z,57.25
2023-02-25T12:59:13.832Z,62.05
2023-02-25T13:02:34.195Z,63.80
2023-02-25T13:05:25.768Z,63.55
2023-02-25T13:08:27.709Z,61.52
2023-02-25T13:11:05.597Z,58.99
2023-02-25T13:14:04.724Z,56.59
2023-02-25T13:16:53.906Z,55.34
2023-02-25T13:20:08.932Z,56.54
2023-02-25T13:22:57.796Z,54.25
2023-02-25T13:25:49.789Z,51.76
2023-02-25T13:28:37.487Z,53.58
2023-02-25T13:31:18.881Z,52.88
2023-02-25T13:34:02.641Z,52.31
2023-02-25T13:37:13.721Z,53.20
2023-02-25T13:40:04.452Z,52.95
2023-02-25T13:42:55.355Z,52.58
2023-02-25T13:45:50.008Z,53.48
2023-02-25T13:48:49.096Z,53.53
2023-02-25T13:51:46.059Z,53.15
2023-02-25T13:54:55.816Z,53.87
2023-02-25T13:57:52.953Z,52.25
2023-02-25T14:00:38.537Z,52.49
2023-02-25T14:03:53.360Z,52.88
2023-02-25T14:06:45.376Z,53.19
2023-02-25T14:09:37.753Z,53.67
2023-02-25T14:12:23.762Z,54.33
2023-02-25T14:19:26.054Z,54.51
2023-02-25T14:22:23.867Z,54.61
2023-02-25T14:25:03.378Z,53.95
2023-02-25T14:27:45.420Z,52.99
2023-02-25T14:30:26.187Z,52.54
2023-02-25T14:33:20.033Z,52.33
2023-02-25T14:36:13.112Z,51.93
2023-02-25T14:39:05.968Z,51.33
2023-02-25T14:41:53.733Z,50.81
2023-02-25T14:44:34.014Z,50.30
2023-02-25T14:47:10.157Z,50.56
2023-02-25T14:49:49.500Z,49.33
2023-02-25T14:52:57.242Z,50.17
2023-02-25T14:55:58.427Z,49.82
2023-02-25T14:58:53.400Z,50.75
2023-02-25T15:01:59.108Z,50.86
2023-02-25T15:05:12.149Z,58.47
2023-02-25T15:08:21.193Z,64.63
2023-02-25T15:11:13.678Z,67.76
2023-02-25T15:14:08.010Z,71.26
2023-02-25T15:17:25.441Z,75.14
2023-02-25T15:20:16.167Z,75.07
2023-02-25T15:23:04.658Z,76.04
2023-02-25T15:26:20.196Z,75.43
2023-02-25T15:28:48.556Z,74.55
2023-02-25T15:31:35.926Z,73.96
2023-02-25T15:34:33.557Z,74.05
2023-02-25T15:37:26.340Z,73.15
2023-02-25T15:39:57.523Z,73.11
2023-02-25T15:42:48.555Z,73.37
2023-02-25T15:45:40.274Z,74.44
2023-02-25T15:48:34.701Z,74.20
2023-02-25T15:51:08.817Z,73.53
2023-02-25T15:53:44.165Z,73.33
2023-02-25T15:56:52.486Z,73.62
2023-02-25T15:59:44.341Z,73.49
2023-02-25T16:02:41.457Z,72.93
2023-02-25T16:05:39.782Z,73.00
2023-02-25T16:08:30.237Z,72.26
2023-02-25T16:15:35.364Z,70.60
2023-02-25T16:18:38.253Z,69.57
2023-02-25T16:21:15.458Z,70.75
2023-02-25T16:23:53.937Z,69.94
2023-02-25T16:27:27.056Z,69.79
2023-02-25T16:30:27.331Z,69.01
2023-02-25T16:33:46.611Z,68.17
2023-02-25T16:37:11.747Z,68.70
2023-02-25T16:39:39.689Z,68.22
2023-02-25T16:42:13.965Z,67.91
2023-02-25T16:44:55.018Z,69.05
2023-02-25T16:51:29.548Z,78.54
2023-02-25T16:54:03.564Z,79.77
2023-02-25T16:56:33.083Z,81.15
2023-02-25T16:59:06.693Z,81.66
2023-02-25T17:01:37.107Z,82.55
2023-02-25T17:04:16.404Z,82.07
2023-02-25T17:06:43.367Z,82.46
2023-02-25T17:09:23.684Z,81.76
2023-02-25T17:11:56.300Z,80.58
2023-02-25T17:14:25.714Z,79.49
2023-02-25T17:16:53.441Z,79.27
2023-02-25T17:19:24.326Z,79.50
2023-02-25T17:21:56.211Z,78.98
2023-02-25T17:24:28.820Z,78.99
2023-02-25T17:26:56.018Z,78.69
2023-02-25T17:29:34.742Z,79.15
2023-02-25T17:32:19.097Z,78.84
2023-02-25T17:34:51.011Z,78.22
2023-02-25T17:37:20.175Z,78.29
2023-02-25T17:39:48.629Z,77.81
2023-02-25T17:42:32.466Z,77.91
2023-02-25T17:45:02.020Z,77.77
2023-02-25T17:47:32.645Z,78.32
2023-02-25T17:50:21.511Z,77.81
2023-02-25T17:52:49.301Z,77.65
2023-02-25T17:55:25.838Z,77.11
2023-02-25T17:57:58.352Z,76.43
2023-02-25T18:00:30.687Z,76.62
2023-02-25T18:03:16.449Z,76.68
2023-02-25T18:05:52.731Z,76.68
2023-02-25T18:08:22.760Z,76.45
2023-02-25T18:11:02.414Z,76.21
2023-02-25T18:13:35.995Z,75.75
2023-02-25T18:16:39.723Z,76.33
2023-02-25T18:19:25.707Z,76.96
2023-02-25T18:21:54.779Z,76.72
2023-02-25T18:24:25.672Z,77.13
2023-02-25T18:27:24.115Z,76.63
2023-02-25T18:29:50.941Z,76.77
2023-02-25T18:32:17.850Z,76.79
2023-02-25T18:34:45.638Z,76.21
2023-02-25T18:37:18.035Z,76.34
2023-02-25T18:39:47.355Z,76.80
2023-02-25T18:42:16.908Z,76.57
2023-02-25T18:44:46.038Z,76.55
2023-02-25T18:47:12.968Z,76.52
2023-02-25T18:49:40.421Z,76.30
2023-02-25T18:52:20.252Z,76.03
2023-02-25T18:54:47.866Z,75.56
2023-02-25T18:57:20.646Z,75.82
2023-02-25T18:59:47.572Z,75.14
2023-02-25T19:02:27.341Z,75.15
2023-02-25T19:04:55.185Z,75.32
2023-02-25T19:07:26.604Z,74.41
2023-02-25T19:09:54.681Z,74.61
2023-02-25T19:12:23.913Z,75.32
2023-02-25T19:14:58.838Z,76.03
2023-02-25T19:17:27.896Z,75.66
2023-02-25T19:19:56.302Z,75.39
2023-02-25T19:22:25.638Z,75.56
2023-02-25T19:24:53.180Z,74.79
2023-02-25T19:27:24.331Z,73.92
2023-02-25T19:29:54.535Z,72.56
2023-02-25T19:32:22.128Z,73.09
2023-02-25T19:34:49.654Z,72.73
2023-02-25T19:37:19.128Z,72.23
2023-02-25T19:39:47.880Z,72.38
2023-02-25T19:42:15.319Z,72.95
2023-02-25T19:44:42.268Z,72.55
2023-02-25T19:47:09.476Z,71.70
2023-02-25T19:49:36.490Z,72.84
2023-02-25T19:52:04.274Z,73.06
2023-02-25T19:54:33.490Z,72.95
2023-02-25T19:57:01.845Z,72.72
2023-02-25T19:59:30.774Z,72.77
2023-02-25T20:01:57.718Z,71.07
2023-02-25T20:04:25.798Z,71.80
2023-02-25T20:06:57.143Z,72.30
2023-02-25T20:09:24.474Z,70.55
2023-02-25T20:11:51.589Z,70.67
2023-02-25T20:14:25.654Z,68.46
2023-02-25T20:16:53.307Z,70.11
2023-02-25T20:19:20.729Z,71.05
2023-02-25T20:26:08.766Z,69.43
2023-02-25T20:28:36.845Z,69.98
2023-02-25T20:31:08.059Z,70.58
2023-02-25T20:33:37.436Z,70.37
2023-02-25T20:36:20.226Z,70.23
2023-02-25T20:39:24.678Z,69.26
2023-02-25T20:41:52.045Z,69.55
2023-02-25T20:44:19.185Z,67.69
2023-02-25T20:46:49.208Z,66.80
2023-02-25T20:49:20.074Z,66.00
2023-02-25T20:51:48.909Z,65.63
2023-02-25T20:54:18.399Z,65.27
2023-02-25T20:56:47.635Z,64.26
2023-02-25T20:59:16.157Z,64.05
2023-02-25T21:01:44.356Z,64.14
2023-02-25T21:04:14.157Z,62.91
2023-02-25T21:06:41.050Z,63.77
2023-02-25T21:09:09.881Z,62.92
2023-02-25T21:11:37.112Z,63.55
2023-02-25T21:14:04.293Z,63.14
2023-02-25T21:16:31.198Z,63.57
2023-02-25T21:18:58.631Z,63.92
2023-02-25T21:21:27.170Z,64.11
2023-02-25T21:23:53.973Z,63.89
2023-02-25T21:26:22.116Z,63.64
2023-02-25T21:28:49.072Z,63.87
2023-02-25T21:31:16.789Z,63.90
2023-02-25T21:33:44.000Z,64.33
2023-02-25T21:36:16.511Z,64.90
2023-02-25T21:49:57.993Z,62.29
2023-02-25T21:52:24.976Z,62.39
2023-02-25T21:54:51.883Z,65.64
2023-02-25T22:02:01.473Z,61.12
2023-02-25T22:05:47.133Z,60.56
2023-02-25T22:08:33.750Z,61.72
2023-02-25T22:11:51.861Z,66.06
2023-02-25T22:14:19.451Z,64.78
2023-02-25T22:16:48.367Z,61.31
2023-02-25T22:23:47.661Z,61.37
2023-02-25T22:26:23.136Z,61.85
2023-02-25T22:28:54.572Z,62.23
2023-02-25T22:31:22.557Z,62.40
2023-02-25T22:33:50.274Z,62.21
2023-02-25T22:36:19.369Z,62.73
2023-02-25T22:38:51.293Z,63.11
2023-02-25T22:41:27.699Z,62.68
2023-02-25T22:43:57.252Z,63.31
2023-02-25T22:46:27.886Z,62.45
2023-02-25T22:48:58.512Z,62.71
2023-02-25T22:51:29.162Z,63.06
2023-02-25T22:53:58.018Z,63.11
2023-02-25T22:56:26.270Z,63.25
2023-02-25T22:58:54.078Z,63.60
2023-02-25T23:01:44.375Z,63.83
2023-02-25T23:04:11.354Z,63.77
2023-02-25T23:06:44.057Z,63.26
2023-02-25T23:09:15.003Z,63.32
2023-02-25T23:11:44.277Z,63.06
2023-02-25T23:14:14.644Z,63.80
2023-02-25T23:16:44.920Z,63.82
2023-02-25T23:19:16.951Z,64.16
2023-02-25T23:21:44.246Z,63.49
2023-02-25T23:24:13.827Z,63.38
2023-02-25T23:26:43.844Z,63.96
2023-02-25T23:29:24.830Z,63.68
2023-02-25T23:31:54.584Z,63.88
2023-02-25T23:34:26.880Z,63.79
2023-02-25T23:37:30.493Z,64.03
2023-02-25T23:40:08.132Z,64.14
2023-02-25T23:42:42.602Z,64.98
2023-02-25T23:50:26.843Z,64.57
2023-02-25T23:52:54.500Z,64.59
2023-02-25T23:55:27.595Z,64.63
2023-02-25T23:58:54.410Z,63.94
